createdAt,value
2022-08-22T00:01:44.996Z,99.90
2022-08-22T00:02:54.873Z,99.90
2022-08-22T00:03:04.187Z,99.90
2022-08-22T00:04:25.608Z,99.90
2022-08-22T00:07:18.519Z,99.90
2022-08-22T00:10:03.055Z,99.90
2022-08-22T00:13:01.821Z,99.90
2022-08-22T00:15:42.998Z,99.90
2022-08-22T00:18:32.066Z,99.90
2022-08-22T00:21:27.254Z,99.90
2022-08-22T00:24:02.835Z,99.90
2022-08-22T00:26:44.735Z,99.90
2022-08-22T00:29:33.368Z,99.90
2022-08-22T00:32:11.852Z,99.90
2022-08-22T00:34:58.400Z,99.90
2022-08-22T00:37:34.817Z,99.90
2022-08-22T00:40:08.839Z,99.90
2022-08-22T00:43:12.841Z,99.90
2022-08-22T00:45:48.388Z,99.90
2022-08-22T00:48:44.123Z,99.90
2022-08-22T00:51:40.558Z,99.90
2022-08-22T00:54:31.745Z,99.90
2022-08-22T00:57:30.743Z,99.90
2022-08-22T01:00:13.908Z,99.90
2022-08-22T01:03:16.604Z,99.90
2022-08-22T01:06:01.351Z,99.90
2022-08-22T01:08:36.981Z,99.90
2022-08-22T01:11:18.758Z,99.90
2022-08-22T01:14:13.883Z,99.90
2022-08-22T01:17:00.446Z,99.90
2022-08-22T01:20:05.174Z,99.90
2022-08-22T01:22:56.521Z,99.90
2022-08-22T01:25:46.662Z,99.90
2022-08-22T01:28:35.505Z,99.90
2022-08-22T01:31:22.546Z,99.90
2022-08-22T01:34:23.438Z,99.90
2022-08-22T01:37:27.917Z,99.90
2022-08-22T01:40:22.005Z,99.90
2022-08-22T01:42:53.501Z,99.90
2022-08-22T01:45:38.467Z,99.90
2022-08-22T01:48:05.170Z,99.90
2022-08-22T01:50:53.663Z,99.90
2022-08-22T01:53:29.743Z,99.90
2022-08-22T01:56:16.635Z,99.90
2022-08-22T01:59:11.059Z,99.90
2022-08-22T02:01:50.003Z,99.90
2022-08-22T02:04:52.058Z,99.90
2022-08-22T02:07:46.158Z,99.90
2022-08-22T02:10:44.898Z,99.90
2022-08-22T02:13:14.274Z,99.90
2022-08-22T02:15:50.355Z,99.90
2022-08-22T02:18:29.466Z,99.90
2022-08-22T02:21:05.231Z,99.90
2022-08-22T02:24:16.149Z,99.90
2022-08-22T02:27:05.022Z,99.90
2022-08-22T02:29:43.801Z,99.90
2022-08-22T02:32:26.994Z,99.90
2022-08-22T02:34:57.567Z,99.90
2022-08-22T02:37:35.586Z,99.90
2022-08-22T02:40:06.132Z,99.90
2022-08-22T02:42:59.202Z,99.90
2022-08-22T02:45:35.585Z,99.90
2022-08-22T02:48:37.547Z,99.90
2022-08-22T02:51:36.692Z,99.90
2022-08-22T02:54:16.827Z,99.90
2022-08-22T02:56:52.568Z,99.90
2022-08-22T02:59:39.424Z,99.90
2022-08-22T03:02:29.668Z,99.90
2022-08-22T03:05:23.189Z,99.90
2022-08-22T03:08:01.802Z,99.90
2022-08-22T03:10:39.393Z,99.90
2022-08-22T03:13:44.611Z,99.90
2022-08-22T03:16:26.072Z,99.90
2022-08-22T03:19:04.342Z,99.90
2022-08-22T03:21:43.083Z,99.90
2022-08-22T03:24:38.842Z,99.90
2022-08-22T03:27:23.238Z,99.90
2022-08-22T03:30:21.531Z,99.90
2022-08-22T03:32:54.351Z,99.90
2022-08-22T03:35:45.976Z,99.90
2022-08-22T03:38:37.885Z,99.90
2022-08-22T03:41:25.581Z,99.90
2022-08-22T03:44:07.269Z,99.90
2022-08-22T03:46:52.878Z,99.90
2022-08-22T03:49:44.502Z,99.90
2022-08-22T03:53:01.867Z,99.90
2022-08-22T03:56:05.913Z,99.90
2022-08-22T03:58:57.459Z,99.90
2022-08-22T04:01:50.705Z,99.90
2022-08-22T04:04:32.490Z,99.90
2022-08-22T04:07:31.483Z,99.90
2022-08-22T04:10:20.903Z,99.90
2022-08-22T04:12:50.621Z,99.90
2022-08-22T04:15:41.221Z,99.90
2022-08-22T04:18:40.431Z,99.90
2022-08-22T04:21:28.918Z,99.90
2022-08-22T04:23:55.601Z,99.90
2022-08-22T04:26:33.389Z,99.90
2022-08-22T04:29:08.641Z,99.90
2022-08-22T04:31:46.242Z,99.90
2022-08-22T04:34:34.251Z,99.90
2022-08-22T04:37:18.191Z,99.90
2022-08-22T04:39:51.027Z,99.90
2022-08-22T04:42:33.702Z,99.90
2022-08-22T04:45:17.751Z,99.90
2022-08-22T04:48:14.024Z,99.90
2022-08-22T04:51:17.791Z,99.90
2022-08-22T04:53:56.357Z,99.90
2022-08-22T04:56:33.594Z,99.90
2022-08-22T04:59:07.879Z,99.90
2022-08-22T05:01:42.563Z,99.90
2022-08-22T05:04:18.208Z,99.90
2022-08-22T05:06:50.607Z,99.90
2022-08-22T05:09:22.218Z,99.90
2022-08-22T05:11:53.692Z,99.90
2022-08-22T05:14:45.002Z,99.90
2022-08-22T05:17:17.081Z,99.90
2022-08-22T05:19:50.523Z,99.90
2022-08-22T05:22:24.468Z,99.90
2022-08-22T05:24:56.951Z,99.90
2022-08-22T05:27:29.283Z,99.90
2022-08-22T05:30:05.073Z,99.90
2022-08-22T05:32:52.201Z,99.90
2022-08-22T05:35:23.106Z,99.90
2022-08-22T05:37:54.950Z,99.90
2022-08-22T05:40:26.120Z,99.90
2022-08-22T05:42:54.811Z,99.90
2022-08-22T05:45:22.821Z,99.90
2022-08-22T05:48:21.076Z,99.90
2022-08-22T05:50:57.432Z,99.90
2022-08-22T05:53:36.553Z,99.90
2022-08-22T05:56:10.552Z,99.90
2022-08-22T05:58:41.335Z,99.90
2022-08-22T06:01:17.144Z,99.90
2022-08-22T06:04:11.995Z,99.90
2022-08-22T06:06:56.194Z,99.90
2022-08-22T06:09:43.601Z,99.90
2022-08-22T06:12:22.110Z,99.90
2022-08-22T06:15:17.653Z,99.90
2022-08-22T06:17:51.725Z,99.90
2022-08-22T06:20:23.679Z,99.90
2022-08-22T06:22:58.261Z,99.90
2022-08-22T06:25:32.546Z,99.90
2022-08-22T06:28:06.047Z,99.90
2022-08-22T06:30:35.651Z,99.90
2022-08-22T06:33:12.859Z,99.90
2022-08-22T06:36:06.787Z,99.90
2022-08-22T06:39:10.494Z,99.90
2022-08-22T06:41:47.435Z,99.90
2022-08-22T06:44:18.253Z,99.90
2022-08-22T06:46:46.350Z,99.90
2022-08-22T06:49:13.952Z,99.90
2022-08-22T06:51:41.742Z,99.90
2022-08-22T06:54:19.751Z,99.90
2022-08-22T06:56:49.544Z,99.90
2022-08-22T06:59:22.448Z,99.90
2022-08-22T07:02:05.314Z,99.90
2022-08-22T07:04:32.256Z,99.90
2022-08-22T07:07:01.164Z,99.90
2022-08-22T07:09:37.141Z,99.90
2022-08-22T07:12:13.994Z,99.90
2022-08-22T07:14:46.896Z,99.90
2022-08-22T07:17:21.659Z,99.90
2022-08-22T07:20:23.630Z,99.90
2022-08-22T07:22:57.689Z,99.90
2022-08-22T07:25:25.263Z,99.90
2022-08-22T07:28:00.525Z,99.60
2022-08-22T07:31:08.986Z,99.90
2022-08-22T07:33:47.784Z,99.40
2022-08-22T07:36:22.981Z,98.30
2022-08-22T07:39:07.009Z,97.70
2022-08-22T07:42:11.346Z,96.10
2022-08-22T07:45:17.221Z,94.60
2022-08-22T07:48:00.359Z,94.00
2022-08-22T07:50:31.501Z,94.20
2022-08-22T07:53:19.602Z,93.30
2022-08-22T07:55:49.931Z,92.70
2022-08-22T07:58:18.108Z,92.40
2022-08-22T08:00:46.710Z,92.10
2022-08-22T08:03:13.722Z,91.20
2022-08-22T08:05:44.185Z,90.70
2022-08-22T08:08:41.821Z,90.40
2022-08-22T08:11:11.977Z,90.10
2022-08-22T08:13:43.612Z,90.00
2022-08-22T08:16:22.252Z,90.00
2022-08-22T08:18:52.649Z,88.50
2022-08-22T08:21:30.715Z,89.60
2022-08-22T08:24:00.195Z,88.80
2022-08-22T08:27:02.752Z,88.50
2022-08-22T08:29:31.355Z,88.20
2022-08-22T08:32:00.251Z,87.20
2022-08-22T08:34:32.355Z,87.60
2022-08-22T08:37:12.678Z,87.10
2022-08-22T08:39:48.422Z,86.70
2022-08-22T08:42:25.067Z,87.00
2022-08-22T08:45:19.518Z,87.00
2022-08-22T08:48:16.145Z,85.30
2022-08-22T08:51:09.693Z,85.20
2022-08-22T08:54:16.105Z,85.80
2022-08-22T08:56:54.428Z,85.80
2022-08-22T08:59:33.665Z,82.30
2022-08-22T09:02:40.521Z,80.10
2022-08-22T09:05:28.547Z,85.00
2022-08-22T09:08:19.278Z,86.60
2022-08-22T09:10:58.280Z,82.20
2022-08-22T09:14:12.361Z,82.90
2022-08-22T09:17:13.890Z,82.40
2022-08-22T09:20:18.099Z,80.10
2022-08-22T09:23:10.098Z,80.00
2022-08-22T09:25:48.748Z,77.80
2022-08-22T09:28:40.134Z,81.30
2022-08-22T09:31:44.814Z,78.30
2022-08-22T09:34:26.016Z,76.70
2022-08-22T09:37:20.074Z,78.40
2022-08-22T09:40:06.272Z,79.30
2022-08-22T09:43:21.209Z,74.60
2022-08-22T09:46:10.677Z,75.40
2022-08-22T09:48:48.622Z,78.40
2022-08-22T09:51:38.551Z,76.70
2022-08-22T09:54:18.765Z,77.30
2022-08-22T09:57:03.430Z,76.50
2022-08-22T09:59:48.711Z,72.20
2022-08-22T10:02:50.367Z,70.40
2022-08-22T10:05:35.149Z,66.30
2022-08-22T10:08:49.286Z,67.80
2022-08-22T10:11:59.960Z,69.40
2022-08-22T10:14:50.657Z,65.50
2022-08-22T10:17:30.536Z,66.30
2022-08-22T10:20:21.163Z,69.00
2022-08-22T10:23:12.658Z,69.00
2022-08-22T10:26:09.074Z,64.20
2022-08-22T10:29:02.258Z,58.90
2022-08-22T10:31:45.145Z,59.40
2022-08-22T10:34:35.750Z,59.00
2022-08-22T10:37:13.521Z,61.90
2022-08-22T10:39:53.214Z,62.40
2022-08-22T10:42:35.535Z,56.20
2022-08-22T10:45:36.428Z,59.80
2022-08-22T10:48:07.274Z,55.30
2022-08-22T10:50:43.701Z,56.50
2022-08-22T10:53:33.351Z,57.60
2022-08-22T10:56:11.071Z,60.80
2022-08-22T10:58:54.843Z,55.40
2022-08-22T11:01:37.679Z,55.30
2022-08-22T11:04:44.692Z,57.00
2022-08-22T11:07:35.977Z,57.90
2022-08-22T11:10:21.249Z,59.50
2022-08-22T11:13:11.442Z,61.30
2022-08-22T11:15:53.684Z,58.70
2022-08-22T11:18:30.537Z,58.10
2022-08-22T11:21:07.236Z,55.40
2022-08-22T11:24:01.037Z,57.00
2022-08-22T11:26:47.769Z,57.70
2022-08-22T11:29:45.494Z,57.60
2022-08-22T11:32:26.654Z,60.10
2022-08-22T11:35:00.533Z,57.80
2022-08-22T11:38:04.835Z,59.90
2022-08-22T11:40:42.566Z,56.50
2022-08-22T11:43:24.230Z,59.10
2022-08-22T11:45:53.535Z,58.00
2022-08-22T11:48:35.631Z,59.10
2022-08-22T11:51:49.560Z,58.70
2022-08-22T11:54:43.280Z,54.00
2022-08-22T11:57:19.190Z,57.70
2022-08-22T11:59:45.814Z,55.70
2022-08-22T12:02:21.895Z,57.00
2022-08-22T12:04:57.434Z,55.00
2022-08-22T12:07:32.225Z,53.50
2022-08-22T12:10:07.971Z,52.50
2022-08-22T12:13:05.691Z,48.60
2022-08-22T12:16:03.618Z,48.60
2022-08-22T12:18:52.923Z,52.70
2022-08-22T12:21:57.683Z,52.00
2022-08-22T12:24:31.252Z,50.70
2022-08-22T12:27:18.367Z,45.80
2022-08-22T12:30:14.027Z,44.90
2022-08-22T12:33:10.508Z,46.30
2022-08-22T12:35:57.740Z,47.80
2022-08-22T12:38:42.854Z,47.60
2022-08-22T12:41:34.575Z,47.70
2022-08-22T12:44:17.693Z,48.60
2022-08-22T12:47:03.035Z,52.70
2022-08-22T12:49:52.930Z,51.70
2022-08-22T12:52:31.745Z,50.30
2022-08-22T12:55:24.856Z,50.30
2022-08-22T12:58:02.151Z,50.60
2022-08-22T13:00:32.081Z,49.20
2022-08-22T13:03:04.729Z,44.90
2022-08-22T13:05:34.307Z,46.90
2022-08-22T13:08:20.255Z,46.50
2022-08-22T13:10:56.239Z,45.20
2022-08-22T13:13:56.054Z,45.60
2022-08-22T13:16:24.947Z,47.50
2022-08-22T13:19:00.866Z,49.80
2022-08-22T13:21:40.233Z,45.00
2022-08-22T13:24:12.757Z,46.40
2022-08-22T13:26:58.529Z,48.70
2022-08-22T13:29:39.075Z,46.60
2022-08-22T13:32:23.579Z,46.20
2022-08-22T13:34:56.506Z,49.40
2022-08-22T13:37:30.066Z,49.50
2022-08-22T13:40:02.581Z,49.70
2022-08-22T13:42:31.437Z,49.40
2022-08-22T13:45:05.088Z,47.70
2022-08-22T13:47:35.835Z,50.50
2022-08-22T13:50:14.558Z,48.60
2022-08-22T13:52:55.233Z,49.50
2022-08-22T13:55:49.016Z,47.50
2022-08-22T13:58:15.913Z,47.90
2022-08-22T14:01:21.305Z,49.60
2022-08-22T14:04:35.608Z,46.80
2022-08-22T14:07:03.710Z,47.70
2022-08-22T14:09:42.511Z,46.60
2022-08-22T14:12:11.958Z,47.50
2022-08-22T14:14:42.482Z,45.80
2022-08-22T14:17:24.406Z,45.80
2022-08-22T14:19:59.609Z,45.50
2022-08-22T14:22:35.053Z,46.80
2022-08-22T14:25:25.526Z,47.20
2022-08-22T14:28:01.289Z,46.20
2022-08-22T14:30:38.967Z,45.60
2022-08-22T14:33:46.897Z,45.40
2022-08-22T14:36:26.013Z,46.00
2022-08-22T14:39:02.555Z,48.10
2022-08-22T14:42:00.362Z,51.30
2022-08-22T14:44:40.396Z,48.20
2022-08-22T14:47:32.554Z,48.10
2022-08-22T14:50:09.434Z,47.20
2022-08-22T14:52:46.342Z,45.70
2022-08-22T14:55:15.857Z,49.10
2022-08-22T14:57:57.372Z,47.00
2022-08-22T15:00:32.040Z,47.50
2022-08-22T15:03:14.383Z,47.60
2022-08-22T15:05:52.446Z,47.90
2022-08-22T15:08:32.292Z,46.50
2022-08-22T15:11:22.181Z,47.60
2022-08-22T15:14:21.186Z,48.60
2022-08-22T15:17:05.595Z,48.00
2022-08-22T15:19:47.931Z,48.80
2022-08-22T15:22:27.942Z,48.70
2022-08-22T15:25:28.767Z,46.60
2022-08-22T15:28:05.337Z,47.00
2022-08-22T15:30:38.276Z,48.00
2022-08-22T15:33:14.274Z,49.10
2022-08-22T15:35:42.725Z,49.50
2022-08-22T15:38:32.898Z,48.40
2022-08-22T15:41:22.620Z,50.20
2022-08-22T15:44:00.869Z,50.00
2022-08-22T15:46:56.775Z,47.90
2022-08-22T15:49:32.127Z,49.10
2022-08-22T15:52:01.780Z,49.30
2022-08-22T15:54:54.681Z,49.50
2022-08-22T15:57:29.951Z,48.20
2022-08-22T15:59:59.910Z,48.80
2022-08-22T16:02:41.706Z,48.00
2022-08-22T16:05:11.447Z,47.80
2022-08-22T16:07:41.183Z,48.00
2022-08-22T16:10:13.177Z,50.40
2022-08-22T16:12:47.600Z,49.20
2022-08-22T16:15:52.849Z,48.20
2022-08-22T16:18:39.049Z,48.40
2022-08-22T16:21:23.761Z,50.90
2022-08-22T16:23:56.696Z,49.80
2022-08-22T16:26:24.566Z,50.60
2022-08-22T16:29:26.219Z,47.60
2022-08-22T16:31:54.585Z,49.10
2022-08-22T16:34:26.883Z,48.80
2022-08-22T16:37:08.617Z,49.40
2022-08-22T16:40:01.034Z,50.70
2022-08-22T16:42:39.310Z,48.70
2022-08-22T16:45:16.118Z,47.70
2022-08-22T16:47:58.054Z,49.10
2022-08-22T16:50:37.715Z,50.40
2022-08-22T16:53:30.385Z,51.10
2022-08-22T16:56:23.379Z,49.00
2022-08-22T16:59:19.740Z,50.70
2022-08-22T17:02:03.189Z,52.80
2022-08-22T17:04:40.357Z,52.20
2022-08-22T17:07:13.075Z,49.20
2022-08-22T17:10:03.446Z,49.80
2022-08-22T17:13:18.640Z,51.30
2022-08-22T17:15:56.849Z,52.40
2022-08-22T17:18:26.247Z,53.60
2022-08-22T17:21:11.470Z,53.70
2022-08-22T17:23:46.783Z,53.90
2022-08-22T17:26:46.817Z,53.20
2022-08-22T17:29:49.383Z,53.20
2022-08-22T17:32:24.977Z,55.70
2022-08-22T17:35:04.450Z,55.50
2022-08-22T17:38:11.215Z,56.70
2022-08-22T17:40:55.752Z,56.30
2022-08-22T17:43:22.349Z,57.20
2022-08-22T17:46:18.918Z,57.40
2022-08-22T17:49:08.151Z,57.70
2022-08-22T17:51:44.350Z,58.90
2022-08-22T17:54:20.610Z,58.80
2022-08-22T17:57:13.406Z,59.60
2022-08-22T17:59:52.230Z,61.40
2022-08-22T18:02:27.922Z,67.10
2022-08-22T18:05:07.979Z,68.00
2022-08-22T18:07:51.610Z,68.20
2022-08-22T18:10:19.471Z,67.40
2022-08-22T18:13:06.968Z,67.20
2022-08-22T18:15:58.680Z,67.90
2022-08-22T18:18:33.293Z,69.80
2022-08-22T18:21:08.509Z,67.50
2022-08-22T18:23:55.695Z,68.30
2022-08-22T18:26:50.135Z,69.80
2022-08-22T18:29:38.879Z,72.20
2022-08-22T18:32:33.293Z,70.80
2022-08-22T18:35:10.005Z,68.50
2022-08-22T18:37:37.297Z,69.90
2022-08-22T18:40:27.008Z,72.40
2022-08-22T18:43:23.850Z,73.60
2022-08-22T18:45:50.479Z,73.70
2022-08-22T18:48:26.347Z,74.90
2022-08-22T18:51:12.603Z,77.90
2022-08-22T18:53:46.703Z,77.70
2022-08-22T18:56:38.250Z,77.80
2022-08-22T18:59:40.122Z,78.20
2022-08-22T19:02:37.315Z,77.30
2022-08-22T19:05:22.623Z,78.70
2022-08-22T19:08:11.688Z,79.50
2022-08-22T19:11:02.989Z,80.50
2022-08-22T19:14:14.331Z,82.30
2022-08-22T19:17:16.212Z,83.00
2022-08-22T19:20:01.215Z,83.40
2022-08-22T19:22:36.523Z,82.80
2022-08-22T19:25:15.026Z,83.80
2022-08-22T19:28:02.192Z,84.60
2022-08-22T19:30:46.559Z,86.30
2022-08-22T19:33:34.598Z,88.70
2022-08-22T19:36:09.429Z,89.10
2022-08-22T19:38:56.368Z,88.80
2022-08-22T19:41:52.386Z,91.00
2022-08-22T19:44:18.999Z,90.70
2022-08-22T19:46:59.370Z,90.50
2022-08-22T19:49:32.005Z,91.00
2022-08-22T19:52:11.957Z,92.20
2022-08-22T19:55:12.601Z,92.90
2022-08-22T19:57:49.895Z,93.20
2022-08-22T20:00:24.825Z,93.00
2022-08-22T20:03:12.712Z,92.50
2022-08-22T20:05:56.637Z,92.80
2022-08-22T20:08:56.586Z,92.50
2022-08-22T20:11:43.491Z,92.20
2022-08-22T20:14:31.067Z,92.50
2022-08-22T20:17:16.564Z,93.10
2022-08-22T20:20:19.708Z,93.60
2022-08-22T20:23:02.829Z,94.10
2022-08-22T20:25:44.150Z,94.10
2022-08-22T20:28:35.037Z,94.10
2022-08-22T20:31:09.156Z,94.60
2022-08-22T20:33:40.802Z,94.40
2022-08-22T20:36:18.530Z,94.70
2022-08-22T20:39:10.837Z,94.30
2022-08-22T20:41:40.647Z,94.70
2022-08-22T20:44:28.466Z,94.90
2022-08-22T20:47:02.264Z,96.00
2022-08-22T20:49:52.322Z,95.60
2022-08-22T20:52:51.851Z,96.10
2022-08-22T20:55:27.287Z,96.60
2022-08-22T20:58:25.331Z,96.90
2022-08-22T21:00:56.919Z,96.60
2022-08-22T21:03:46.022Z,96.70
2022-08-22T21:06:31.566Z,96.40
2022-08-22T21:09:37.484Z,96.30
2022-08-22T21:12:09.121Z,96.70
2022-08-22T21:14:44.160Z,97.20
2022-08-22T21:17:34.511Z,97.80
2022-08-22T21:20:22.670Z,98.50
2022-08-22T21:22:50.423Z,98.50
2022-08-22T21:25:17.230Z,98.40
2022-08-22T21:27:48.096Z,97.80
2022-08-22T21:30:25.794Z,96.40
2022-08-22T21:32:56.249Z,96.30
2022-08-22T21:35:32.501Z,96.50
2022-08-22T21:38:00.917Z,96.90
2022-08-22T21:40:36.949Z,97.60
2022-08-22T21:43:12.468Z,98.80
2022-08-22T21:45:39.069Z,99.30
2022-08-22T21:48:33.715Z,99.50
2022-08-22T21:51:41.797Z,99.50
2022-08-22T21:54:29.398Z,99.40
2022-08-22T21:56:58.998Z,98.50
2022-08-22T21:59:51.669Z,98.70
2022-08-22T22:02:31.186Z,98.60
2022-08-22T22:04:59.007Z,98.50
2022-08-22T22:07:26.617Z,98.20
2022-08-22T22:09:54.840Z,98.90
2022-08-22T22:12:22.407Z,99.30
2022-08-22T22:14:49.601Z,99.20
2022-08-22T22:17:17.819Z,99.30
2022-08-22T22:19:44.873Z,99.40
2022-08-22T22:22:11.609Z,99.30
2022-08-22T22:24:38.555Z,99.50
2022-08-22T22:27:06.193Z,99.70
2022-08-22T22:29:34.107Z,99.90
2022-08-22T22:32:00.812Z,99.90
2022-08-22T22:34:27.576Z,99.90
2022-08-22T22:36:54.594Z,99.90
2022-08-22T22:39:21.368Z,99.90
2022-08-22T22:41:49.171Z,99.90
2022-08-22T22:44:16.014Z,99.90
2022-08-22T22:46:42.779Z,99.90
2022-08-22T22:49:09.459Z,99.90
2022-08-22T22:51:36.154Z,99.90
2022-08-22T22:54:03.228Z,99.90
2022-08-22T22:56:31.176Z,99.90
2022-08-22T22:59:01.182Z,99.80
2022-08-22T23:02:00.265Z,99.70
2022-08-22T23:04:27.319Z,99.90
2022-08-22T23:06:54.046Z,99.90
2022-08-22T23:09:20.722Z,99.90
2022-08-22T23:11:54.859Z,99.90
2022-08-22T23:14:21.611Z,99.90
2022-08-22T23:16:48.310Z,99.90
2022-08-22T23:19:17.211Z,99.90
2022-08-22T23:21:45.154Z,99.90
2022-08-22T23:24:13.524Z,99.90
2022-08-22T23:26:40.406Z,99.90
2022-08-22T23:29:07.116Z,99.90
2022-08-22T23:31:36.810Z,99.90
2022-08-22T23:34:10.521Z,99.90
2022-08-22T23:36:37.910Z,99.90
2022-08-22T23:39:06.485Z,99.90
2022-08-22T23:41:33.339Z,99.90
2022-08-22T23:44:00.160Z,99.90
2022-08-22T23:46:27.625Z,99.90
2022-08-22T23:48:57.796Z,99.90
2022-08-22T23:51:26.049Z,99.90
2022-08-22T23:53:54.830Z,99.90
2022-08-22T23:56:29.606Z,99.90
2022-08-22T23:58:56.888Z,99.90
